Time;durP1;ratioP1;P1;durP2;ratioP2;P2;SDS_P1;SDS_P2;PMS_P1;PMS_P2;Temp;Humidity;BMP_temperature;BMP_pressure;BME280_temperature;BME280_humidity;BME280_pressure;Samples;Min_cycle;Max_cycle;Signal;HPM_P1;HPM_P2
2023/04/24 00:00:17;;;;;;;2.92;2.38;;;20.70;61.10;;;;;;5000381;28;20112;-57
2023/04/24 00:02:47;;;;;;;3.90;2.75;;;20.70;61.10;;;;;;5001735;28;20034;-56
2023/04/24 00:05:17;;;;;;;4.38;2.53;;;20.70;61.10;;;;;;4998183;28;20431;-57
2023/04/24 00:07:44;;;;;;;6.18;2.60;;;20.70;61.10;;;;;;5000662;28;20026;-58
2023/04/24 00:10:10;;;;;;;2.85;2.38;;;20.70;61.10;;;;;;4999011;28;20030;-57
2023/04/24 00:12:36;;;;;;;5.22;2.85;;;20.70;61.20;;;;;;5001159;28;20506;-54
2023/04/24 00:15:02;;;;;;;3.65;2.25;;;20.70;61.10;;;;;;4999512;28;20041;-58
2023/04/24 00:17:27;;;;;;;3.50;2.45;;;20.70;61.20;;;;;;4992704;28;20054;-57
2023/04/24 00:19:58;;;;;;;5.07;2.35;;;20.70;61.20;;;;;;4998821;28;20056;-58
2023/04/24 00:22:25;;;;;;;3.03;2.47;;;20.70;61.10;;;;;;4998568;28;20407;-58
2023/04/24 00:24:50;;;;;;;3.38;1.92;;;20.70;61.20;;;;;;4995389;28;20034;-58
2023/04/24 00:27:16;;;;;;;2.70;2.40;;;20.70;61.10;;;;;;5001700;28;20088;-57
2023/04/24 00:29:41;;;;;;;3.13;2.10;;;20.70;61.20;;;;;;5002010;28;20034;-55
2023/04/24 00:32:07;;;;;;;2.90;1.98;;;20.70;61.20;;;;;;5000840;28;20034;-58
2023/04/24 00:34:32;;;;;;;3.30;2.17;;;20.70;61.20;;;;;;5000173;28;20518;-56
2023/04/24 00:36:58;;;;;;;2.75;1.90;;;20.70;61.10;;;;;;5003163;28;20038;-57
2023/04/24 00:39:23;;;;;;;2.05;1.85;;;20.70;61.20;;;;;;4996146;28;20030;-56
2023/04/24 00:41:50;;;;;;;2.25;2.00;;;20.70;61.20;;;;;;5000246;28;20375;-56
2023/04/24 00:44:16;;;;;;;3.42;2.13;;;20.70;61.20;;;;;;4997436;28;20353;-58
2023/04/24 00:46:42;;;;;;;2.90;2.00;;;20.70;61.10;;;;;;4997015;28;20531;-57
2023/04/24 00:49:08;;;;;;;3.10;2.13;;;20.70;61.20;;;;;;4997026;28;20495;-58
2023/04/24 00:51:34;;;;;;;4.40;2.10;;;20.70;61.20;;;;;;4993036;28;20031;-57
2023/04/24 00:54:00;;;;;;;4.10;1.58;;;20.70;61.20;;;;;;4998647;28;20034;-58
2023/04/24 00:56:27;;;;;;;2.90;1.90;;;20.60;61.10;;;;;;5000330;28;20101;-55
2023/04/24 00:58:53;;;;;;;3.55;2.10;;;20.60;61.10;;;;;;5001131;28;20041;-58
2023/04/24 01:01:22;;;;;;;2.88;2.00;;;20.70;61.20;;;;;;4997863;28;20026;-60
2023/04/24 01:03:50;;;;;;;2.30;1.80;;;20.60;61.10;;;;;;5000891;28;20037;-59
2023/04/24 01:06:18;;;;;;;2.65;2.25;;;20.60;61.10;;;;;;4996892;28;20030;-52
2023/04/24 01:08:45;;;;;;;2.92;2.10;;;20.60;61.10;;;;;;4995654;28;20514;-57
2023/04/24 01:11:11;;;;;;;4.53;1.83;;;20.60;61.20;;;;;;5001488;28;20035;-59
2023/04/24 01:13:36;;;;;;;2.80;2.20;;;20.60;61.10;;;;;;4997409;28;20041;-59
2023/04/24 01:16:02;;;;;;;2.72;1.45;;;20.60;61.10;;;;;;4998672;28;20100;-58
2023/04/24 01:18:28;;;;;;;2.17;1.70;;;20.60;61.10;;;;;;4996974;28;20060;-53
2023/04/24 01:20:58;;;;;;;1.77;1.58;;;20.60;61.10;;;;;;4993160;28;20035;-56
2023/04/24 01:23:24;;;;;;;1.85;1.60;;;20.60;61.10;;;;;;4993996;28;20061;-58
2023/04/24 01:25:51;;;;;;;2.42;1.58;;;20.60;61.10;;;;;;4995929;28;20459;-58
2023/04/24 01:28:17;;;;;;;1.92;1.73;;;20.60;61.10;;;;;;5001180;28;20030;-58
2023/04/24 01:30:43;;;;;;;1.70;1.33;;;20.60;61.10;;;;;;5003099;28;20034;-57
2023/04/24 01:33:10;;;;;;;3.53;1.70;;;20.60;61.10;;;;;;4996725;28;20050;-57
2023/04/24 01:35:37;;;;;;;1.77;1.60;;;20.60;61.10;;;;;;4998420;28;20117;-57
2023/04/24 01:38:02;;;;;;;4.65;2.08;;;20.60;61.10;;;;;;4995343;28;20414;-58
2023/04/24 01:40:28;;;;;;;1.55;1.27;;;20.60;61.20;;;;;;4997247;28;20037;-61
2023/04/24 01:42:54;;;;;;;2.05;1.52;;;20.60;61.10;;;;;;4997754;28;20033;-59
2023/04/24 01:45:19;;;;;;;3.20;1.40;;;20.60;61.10;;;;;;4993288;28;20129;-58
2023/04/24 01:47:46;;;;;;;2.97;1.48;;;20.60;61.20;;;;;;5001605;28;20137;-59
2023/04/24 01:50:12;;;;;;;2.38;1.50;;;20.50;61.10;;;;;;4994379;28;20062;-59
2023/04/24 01:52:37;;;;;;;2.13;1.83;;;20.50;61.10;;;;;;4998979;28;20072;-59
2023/04/24 01:55:04;;;;;;;1.65;1.55;;;20.60;61.10;;;;;;5001818;28;20038;-56
2023/04/24 01:57:30;;;;;;;2.80;2.03;;;20.50;61.10;;;;;;5000139;28;20053;-57
2023/04/24 01:59:56;;;;;;;1.52;1.42;;;20.50;61.10;;;;;;4999643;28;20038;-58
2023/04/24 02:02:23;;;;;;;3.42;2.00;;;20.50;61.10;;;;;;4999690;28;20357;-56
2023/04/24 02:08:11;;;;;;;2.47;1.60;;;20.50;61.10;;;;;;4994305;28;20040;-59
2023/04/24 02:10:37;;;;;;;2.13;1.35;;;20.50;61.10;;;;;;4993248;28;20038;-58
2023/04/24 02:13:02;;;;;;;1.60;1.30;;;20.50;61.10;;;;;;4994722;28;20041;-58
2023/04/24 02:15:28;;;;;;;1.95;1.10;;;20.50;61.10;;;;;;4995928;28;20488;-56
2023/04/24 02:17:53;;;;;;;1.58;1.10;;;20.50;61.10;;;;;;4995791;28;20061;-58
2023/04/24 02:20:19;;;;;;;1.50;1.20;;;20.50;61.10;;;;;;5001744;28;20484;-58
2023/04/24 02:22:44;;;;;;;1.42;1.20;;;20.50;61.10;;;;;;4997523;28;20440;-58
2023/04/24 02:25:10;;;;;;;2.35;1.35;;;20.50;61.10;;;;;;4999825;28;20040;-57
2023/04/24 02:27:36;;;;;;;1.33;1.23;;;20.60;61.10;;;;;;5000193;28;20034;-56
2023/04/24 02:30:02;;;;;;;1.25;1.10;;;20.50;61.10;;;;;;5000219;28;20485;-56
2023/04/24 02:32:28;;;;;;;1.55;1.20;;;20.50;61.10;;;;;;4998471;28;20039;-57
2023/04/24 02:34:54;;;;;;;1.83;1.08;;;20.50;61.10;;;;;;4988736;28;20041;-55
2023/04/24 02:37:19;;;;;;;1.38;1.13;;;20.50;61.10;;;;;;4994551;28;20026;-59
2023/04/24 02:39:45;;;;;;;2.47;1.48;;;20.50;61.10;;;;;;4995458;28;20041;-57
2023/04/24 02:42:10;;;;;;;3.22;1.40;;;20.50;61.10;;;;;;4995006;28;20031;-57
2023/04/24 02:44:36;;;;;;;2.00;1.15;;;20.50;61.10;;;;;;5000364;28;20031;-56
2023/04/24 02:47:01;;;;;;;2.47;1.25;;;20.50;61.10;;;;;;4999533;28;20036;-59
2023/04/24 02:49:27;;;;;;;1.42;1.10;;;20.50;61.10;;;;;;5000834;28;20066;-58
2023/04/24 02:51:52;;;;;;;1.77;1.10;;;20.50;61.10;;;;;;5005229;28;20406;-55
2023/04/24 02:54:18;;;;;;;3.05;1.25;;;20.50;61.10;;;;;;5004332;28;20033;-57
2023/04/24 02:56:43;;;;;;;1.70;1.20;;;20.50;61.10;;;;;;5009889;28;20598;-56
2023/04/24 03:05:53;;;;;;;1.52;1.25;;;20.50;61.10;;;;;;4977377;28;20526;-59
2023/04/24 03:08:18;;;;;;;1.88;1.20;;;20.50;61.10;;;;;;5005613;28;20026;-57
2023/04/24 03:10:44;;;;;;;2.15;1.00;;;20.50;61.10;;;;;;5005864;28;20031;-58
2023/04/24 03:13:09;;;;;;;2.10;1.00;;;20.40;61.10;;;;;;4994058;28;20112;-58
2023/04/24 03:15:35;;;;;;;2.20;1.15;;;20.40;61.10;;;;;;5004275;28;20044;-57
2023/04/24 03:18:01;;;;;;;1.65;1.30;;;20.40;61.10;;;;;;5000693;28;20034;-58
2023/04/24 03:20:26;;;;;;;1.38;0.98;;;20.50;61.10;;;;;;5003144;28;20035;-58
2023/04/24 03:22:52;;;;;;;3.17;1.17;;;20.40;61.10;;;;;;5002354;28;20115;-57
2023/04/24 03:25:17;;;;;;;1.45;0.90;;;20.50;61.10;;;;;;5004164;28;20580;-54
2023/04/24 03:27:43;;;;;;;1.55;1.13;;;20.50;61.10;;;;;;5007890;28;20041;-60
2023/04/24 03:30:09;;;;;;;3.00;1.13;;;20.50;61.10;;;;;;5002286;28;20348;-56
2023/04/24 03:32:35;;;;;;;1.77;1.10;;;20.40;61.10;;;;;;5001838;28;20030;-59
2023/04/24 03:35:00;;;;;;;1.35;1.00;;;20.40;61.10;;;;;;4997017;28;20556;-57
2023/04/24 03:37:26;;;;;;;1.60;0.85;;;20.40;61.10;;;;;;5000688;28;20037;-54
2023/04/24 03:39:52;;;;;;;1.45;1.00;;;20.40;61.10;;;;;;4995374;28;20046;-59
2023/04/24 03:42:20;;;;;;;1.38;0.80;;;20.40;61.10;;;;;;4995471;28;20033;-59
2023/04/24 03:44:46;;;;;;;1.30;0.88;;;20.40;61.10;;;;;;4995925;28;20025;-53
2023/04/24 03:47:12;;;;;;;1.40;1.10;;;20.40;61.10;;;;;;4995455;28;20169;-56
2023/04/24 03:49:37;;;;;;;1.30;1.00;;;20.40;61.10;;;;;;5004191;28;20392;-59
2023/04/24 03:52:03;;;;;;;1.40;1.00;;;20.40;61.00;;;;;;5010620;28;20044;-58
2023/04/24 03:54:29;;;;;;;3.75;1.00;;;20.40;61.10;;;;;;5004783;28;20023;-63
2023/04/24 03:56:54;;;;;;;2.63;1.45;;;20.40;61.10;;;;;;5006570;28;20088;-55
2023/04/24 03:59:20;;;;;;;3.25;0.90;;;20.40;61.00;;;;;;4998774;28;20038;-58
2023/04/24 04:01:46;;;;;;;1.27;0.95;;;20.40;61.10;;;;;;4997971;28;20022;-57
2023/04/24 04:04:11;;;;;;;4.18;1.17;;;20.40;61.10;;;;;;4999057;28;20394;-56
2023/04/24 04:06:37;;;;;;;3.47;0.80;;;20.40;61.10;;;;;;4997162;28;20033;-58
2023/04/24 04:09:03;;;;;;;1.85;0.80;;;20.40;61.10;;;;;;4988594;28;20129;-58
2023/04/24 04:11:29;;;;;;;2.40;0.68;;;20.40;61.10;;;;;;5005021;28;20022;-57
2023/04/24 04:13:56;;;;;;;2.10;1.20;;;20.40;61.10;;;;;;5001657;28;20121;-55
2023/04/24 04:16:22;;;;;;;3.85;1.25;;;20.40;61.10;;;;;;4998608;28;20487;-59
2023/04/24 04:18:47;;;;;;;2.85;1.00;;;20.40;61.40;;;;;;4999080;28;20176;-55
2023/04/24 04:21:13;;;;;;;11.90;2.22;;;20.40;61.80;;;;;;5004440;28;20052;-55
2023/04/24 04:23:39;;;;;;;5.25;1.00;;;20.40;61.70;;;;;;5003227;28;20104;-56
2023/04/24 04:26:06;;;;;;;3.38;0.90;;;20.40;61.60;;;;;;4998547;28;20042;-58
2023/04/24 04:28:32;;;;;;;3.00;0.98;;;20.40;61.40;;;;;;5000717;28;20440;-53
2023/04/24 04:30:57;;;;;;;7.47;1.30;;;20.50;61.40;;;;;;4997920;28;20069;-56
2023/04/24 04:33:23;;;;;;;10.45;1.23;;;20.50;61.40;;;;;;4997864;28;20042;-58
2023/04/24 04:35:49;;;;;;;4.25;1.20;;;20.50;61.30;;;;;;4992454;28;20038;-57
2023/04/24 04:38:16;;;;;;;6.80;1.30;;;20.50;61.20;;;;;;4996395;28;20510;-57
2023/04/24 04:40:43;;;;;;;4.68;1.20;;;20.50;61.20;;;;;;4997035;28;20050;-57
2023/04/24 04:43:08;;;;;;;3.72;1.20;;;20.60;61.30;;;;;;4991763;28;20451;-57
2023/04/24 04:45:34;;;;;;;3.08;1.10;;;20.50;61.20;;;;;;5003662;28;20034;-57
2023/04/24 04:48:01;;;;;;;3.38;1.33;;;20.50;61.20;;;;;;4998069;28;20043;-57
2023/04/24 04:50:27;;;;;;;9.73;1.25;;;20.60;61.20;;;;;;4998240;28;20037;-57
2023/04/24 04:52:53;;;;;;;4.60;1.40;;;20.60;61.20;;;;;;4994532;28;20353;-56
2023/04/24 04:55:19;;;;;;;4.80;1.45;;;20.60;61.20;;;;;;4998854;28;20228;-54
2023/04/24 04:57:45;;;;;;;2.78;1.17;;;20.50;61.10;;;;;;4995765;28;20041;-57
2023/04/24 05:00:12;;;;;;;5.22;1.50;;;20.50;61.80;;;;;;4998083;28;20034;-59
2023/04/24 05:02:38;;;;;;;6.53;2.20;;;20.50;61.10;;;;;;4997525;28;20030;-58
2023/04/24 05:05:06;;;;;;;7.75;3.33;;;20.50;61.10;;;;;;4994878;28;20053;-56
2023/04/24 05:07:31;;;;;;;7.00;2.50;;;20.60;61.20;;;;;;4999291;28;20026;-57
2023/04/24 05:09:57;;;;;;;6.07;2.17;;;20.50;61.10;;;;;;4996050;28;20037;-56
2023/04/24 05:12:22;;;;;;;4.93;2.20;;;20.50;61.20;;;;;;5002142;28;20500;-54
2023/04/24 05:14:48;;;;;;;4.00;2.00;;;20.50;61.10;;;;;;4998031;28;20535;-57
2023/04/24 05:17:14;;;;;;;5.13;2.25;;;20.50;61.10;;;;;;4996551;28;20038;-57
2023/04/24 05:19:39;;;;;;;3.25;1.92;;;20.50;61.10;;;;;;4998527;28;20372;-57
2023/04/24 05:22:06;;;;;;;6.82;1.75;;;20.50;61.10;;;;;;5001196;28;20050;-57
2023/04/24 05:24:35;;;;;;;3.38;2.05;;;20.50;61.10;;;;;;5001770;28;20034;-56
2023/04/24 05:27:02;;;;;;;8.73;2.03;;;20.50;61.10;;;;;;4998890;28;20140;-57
2023/04/24 05:29:30;;;;;;;2.90;1.60;;;20.50;61.10;;;;;;4999075;28;20030;-57
2023/04/24 05:31:56;;;;;;;4.07;1.92;;;20.50;61.10;;;;;;4997326;28;20053;-56
2023/04/24 05:34:22;;;;;;;9.63;5.38;;;20.50;61.10;;;;;;4994969;28;20034;-53
2023/04/24 05:36:47;;;;;;;24.02;10.45;;;20.50;61.20;;;;;;4994893;28;20034;-55
2023/04/24 05:39:14;;;;;;;36.15;13.43;;;20.50;61.70;;;;;;4994022;28;20436;-54
2023/04/24 05:41:40;;;;;;;27.90;12.23;;;20.50;61.80;;;;;;4993463;28;20035;-56
2023/04/24 05:44:06;;;;;;;30.35;13.73;;;20.50;61.80;;;;;;5000270;28;20049;-56
2023/04/24 05:46:31;;;;;;;25.10;11.98;;;20.50;61.80;;;;;;5001306;28;20108;-58
2023/04/24 05:48:57;;;;;;;24.75;12.55;;;20.50;61.80;;;;;;5004082;28;20128;-58
2023/04/24 05:51:23;;;;;;;29.85;11.30;;;20.50;61.80;;;;;;5001683;28;20388;-58
2023/04/24 05:53:48;;;;;;;23.00;10.48;;;20.50;61.80;;;;;;4997746;28;20038;-58
2023/04/24 05:56:15;;;;;;;22.35;10.93;;;20.50;61.90;;;;;;4998480;28;20034;-55
2023/04/24 05:58:40;;;;;;;18.55;9.45;;;20.50;61.80;;;;;;4995364;28;20091;-55
2023/04/24 06:01:06;;;;;;;21.77;10.50;;;20.50;61.80;;;;;;4996464;28;20445;-56
2023/04/24 06:03:32;;;;;;;20.27;9.32;;;20.50;61.80;;;;;;4996652;28;20030;-58
2023/04/24 06:05:58;;;;;;;17.83;9.60;;;20.50;61.80;;;;;;4996473;28;20092;-57
2023/04/24 06:08:23;;;;;;;16.77;8.35;;;20.50;61.80;;;;;;4993379;28;20034;-56
2023/04/24 06:10:49;;;;;;;17.73;8.20;;;20.50;61.80;;;;;;4996917;28;23201;-57
2023/04/24 06:13:15;;;;;;;14.43;8.07;;;20.50;61.80;;;;;;4991635;28;20052;-58
2023/04/24 06:15:40;;;;;;;22.60;8.10;;;20.50;61.70;;;;;;5000411;28;20117;-57
2023/04/24 06:18:06;;;;;;;20.08;7.90;;;20.50;61.80;;;;;;5000257;28;20026;-55
2023/04/24 06:20:31;;;;;;;14.85;7.70;;;20.50;61.80;;;;;;5009170;28;20480;-58
2023/04/24 06:22:57;;;;;;;16.05;7.80;;;20.50;61.80;;;;;;5009780;28;20033;-58
2023/04/24 06:25:25;;;;;;;13.30;7.38;;;20.50;61.80;;;;;;5002612;28;20045;-56
2023/04/24 06:27:50;;;;;;;11.18;6.65;;;20.50;61.80;;;;;;5006110;28;20209;-58
2023/04/24 06:30:16;;;;;;;14.23;7.15;;;20.50;61.70;;;;;;5006582;28;20026;-56
2023/04/24 06:32:42;;;;;;;16.63;7.22;;;20.40;61.70;;;;;;5000165;28;20037;-57
2023/04/24 06:35:09;;;;;;;11.95;5.70;;;20.50;61.80;;;;;;5004466;28;20092;-57
2023/04/24 06:37:35;;;;;;;13.95;7.03;;;20.50;61.80;;;;;;5001967;28;20040;-56
2023/04/24 06:40:00;;;;;;;13.15;6.60;;;20.40;61.70;;;;;;5000454;28;20034;-57
2023/04/24 06:42:26;;;;;;;11.15;6.07;;;20.40;61.80;;;;;;4999788;28;20034;-55
2023/04/24 06:44:51;;;;;;;12.27;5.55;;;20.40;61.70;;;;;;5003164;28;20539;-55
2023/04/24 06:47:18;;;;;;;9.50;5.45;;;20.40;61.70;;;;;;4995951;28;20034;-56
2023/04/24 06:49:44;;;;;;;7.97;4.97;;;20.40;61.80;;;;;;5009652;28;20030;-58
2023/04/24 06:52:09;;;;;;;9.18;5.32;;;20.40;61.70;;;;;;5004514;28;20033;-56
2023/04/24 06:54:35;;;;;;;13.20;5.68;;;20.40;61.80;;;;;;5015590;28;20362;-53
2023/04/24 06:57:02;;;;;;;12.05;5.97;;;20.40;61.80;;;;;;5001686;28;20038;-55
2023/04/24 06:59:28;;;;;;;9.75;5.70;;;20.40;61.70;;;;;;5003256;28;20040;-54
2023/04/24 07:01:54;;;;;;;9.05;4.93;;;20.40;61.70;;;;;;4998445;28;20026;-58
2023/04/24 07:04:19;;;;;;;8.57;5.03;;;20.40;61.70;;;;;;4999717;28;20550;-56
2023/04/24 07:06:46;;;;;;;10.55;6.32;;;20.40;61.70;;;;;;5001523;28;20030;-55
2023/04/24 07:09:13;;;;;;;10.95;5.15;;;20.40;61.70;;;;;;4997194;28;20129;-56
2023/04/24 07:11:40;;;;;;;7.82;5.00;;;20.40;61.70;;;;;;5002142;28;20040;-54
2023/04/24 07:14:06;;;;;;;10.35;5.18;;;20.40;61.70;;;;;;4999231;28;20116;-57
2023/04/24 07:16:32;;;;;;;9.77;4.65;;;20.40;61.70;;;;;;5002589;28;20113;-56
2023/04/24 07:18:57;;;;;;;9.02;4.88;;;20.40;61.70;;;;;;5002337;28;20108;-55
2023/04/24 07:21:23;;;;;;;8.80;4.72;;;20.40;61.70;;;;;;5001229;28;20022;-57
2023/04/24 07:23:49;;;;;;;8.02;4.80;;;20.40;61.70;;;;;;5007714;28;20068;-56
2023/04/24 07:26:15;;;;;;;10.07;5.03;;;20.40;61.70;;;;;;5002488;28;20466;-58
2023/04/24 07:28:41;;;;;;;5.75;4.47;;;20.40;61.70;;;;;;5001482;28;20109;-58
2023/04/24 07:31:07;;;;;;;7.88;4.78;;;20.40;61.70;;;;;;4999723;28;20372;-53
2023/04/24 07:33:33;;;;;;;7.72;4.28;;;20.40;61.60;;;;;;4998249;28;20114;-56
2023/04/24 07:35:59;;;;;;;6.70;3.50;;;20.40;61.70;;;;;;4997241;28;20117;-54
2023/04/24 07:38:25;;;;;;;7.88;4.38;;;20.40;61.60;;;;;;4995832;28;20068;-56
2023/04/24 07:40:51;;;;;;;7.22;4.22;;;20.40;61.70;;;;;;5002606;28;20148;-53
2023/04/24 07:43:17;;;;;;;5.50;4.00;;;20.40;61.70;;;;;;5003180;28;20419;-57
2023/04/24 07:45:43;;;;;;;6.15;3.70;;;20.40;61.70;;;;;;5000404;28;20053;-56
2023/04/24 07:48:08;;;;;;;6.80;4.15;;;20.30;61.60;;;;;;5000223;28;20120;-56
2023/04/24 07:50:35;;;;;;;5.60;3.63;;;20.30;61.60;;;;;;5000716;28;20044;-55
2023/04/24 07:53:01;;;;;;;5.00;3.58;;;20.40;61.60;;;;;;5000514;28;20046;-57
2023/04/24 07:55:27;;;;;;;7.05;4.20;;;20.40;61.60;;;;;;5001646;28;20140;-58
2023/04/24 07:57:52;;;;;;;6.28;3.88;;;20.30;61.60;;;;;;4995475;28;20030;-58
2023/04/24 08:00:18;;;;;;;5.38;3.35;;;20.40;61.60;;;;;;4994017;28;20048;-56
2023/04/24 08:02:44;;;;;;;9.52;3.70;;;20.40;62.20;;;;;;4998011;28;20049;-56
2023/04/24 08:05:09;;;;;;;6.55;3.35;;;20.40;61.60;;;;;;4997053;28;20030;-58
2023/04/24 08:07:35;;;;;;;4.78;3.42;;;20.40;61.50;;;;;;4996120;28;20507;-58
2023/04/24 08:10:01;;;;;;;6.03;3.40;;;20.40;61.60;;;;;;5004384;28;20030;-62
2023/04/24 08:12:29;;;;;;;6.97;3.55;;;20.40;61.60;;;;;;4995879;28;20042;-54
2023/04/24 08:14:55;;;;;;;6.18;3.47;;;20.40;61.60;;;;;;4994788;28;20044;-55
2023/04/24 08:17:20;;;;;;;7.20;3.33;;;20.40;61.60;;;;;;5003665;28;20049;-56
2023/04/24 08:19:48;;;;;;;6.05;3.30;;;20.40;61.60;;;;;;5003508;28;20022;-57
2023/04/24 08:22:14;;;;;;;5.78;3.60;;;20.40;61.50;;;;;;4999796;28;20031;-58
2023/04/24 08:24:40;;;;;;;4.15;2.92;;;20.40;61.50;;;;;;5001140;28;20050;-55
2023/04/24 08:27:05;;;;;;;6.00;2.67;;;20.30;61.50;;;;;;4997040;28;20065;-57
2023/04/24 08:29:32;;;;;;;5.70;3.17;;;20.30;61.50;;;;;;4998412;28;20030;-60
2023/04/24 08:31:57;;;;;;;4.13;3.28;;;20.30;61.50;;;;;;4997872;28;20041;-57
2023/04/24 08:34:23;;;;;;;6.53;3.13;;;20.30;61.50;;;;;;4997037;28;20026;-55
2023/04/24 08:36:48;;;;;;;9.15;3.05;;;20.30;61.50;;;;;;5000877;28;20380;-58
2023/04/24 08:39:14;;;;;;;6.40;3.05;;;20.40;61.50;;;;;;5001045;28;20050;-57
2023/04/24 08:41:45;;;;;;;4.35;2.58;;;20.30;61.40;;;;;;4996484;28;20030;-57
2023/04/24 08:44:12;;;;;;;4.43;2.80;;;20.30;61.50;;;;;;4993813;28;20041;-56
2023/04/24 08:46:39;;;;;;;3.97;2.75;;;20.30;61.50;;;;;;5005633;28;20030;-54
2023/04/24 08:49:05;;;;;;;3.72;2.63;;;20.30;62.10;;;;;;4996885;28;20112;-58
2023/04/24 08:51:31;;;;;;;4.75;2.55;;;20.30;61.40;;;;;;5001637;28;20033;-56
2023/04/24 08:53:57;;;;;;;6.05;3.17;;;20.30;61.50;;;;;;4998021;28;20696;-58
2023/04/24 08:56:24;;;;;;;3.58;2.50;;;20.30;61.50;;;;;;4999678;28;20030;-55
2023/04/24 08:58:53;;;;;;;6.55;2.75;;;20.30;61.50;;;;;;4996534;28;20049;-55
2023/04/24 09:01:20;;;;;;;7.25;3.10;;;20.30;61.50;;;;;;4995899;28;20026;-56
2023/04/24 09:03:48;;;;;;;7.28;2.70;;;20.30;61.50;;;;;;4999004;28;20030;-57
2023/04/24 09:06:15;;;;;;;3.08;2.30;;;20.30;61.50;;;;;;4994680;28;20027;-55
2023/04/24 09:08:43;;;;;;;5.28;2.55;;;20.30;61.50;;;;;;5001211;28;20057;-57
2023/04/24 09:11:10;;;;;;;4.03;2.53;;;20.30;61.50;;;;;;5000237;28;20030;-54
2023/04/24 09:13:37;;;;;;;3.88;2.55;;;20.30;61.40;;;;;;4993942;28;20478;-52
2023/04/24 09:16:03;;;;;;;2.40;2.05;;;20.30;61.40;;;;;;4996713;28;20483;-55
2023/04/24 09:18:28;;;;;;;4.90;2.30;;;20.30;61.40;;;;;;4997706;28;20092;-56
2023/04/24 09:21:10;;;;;;;7.32;2.40;;;20.30;61.50;;;;;;4996082;28;20137;-58
2023/04/24 09:23:35;;;;;;;4.53;2.45;;;20.30;61.40;;;;;;4999495;28;20031;-60
2023/04/24 09:26:04;;;;;;;6.25;2.17;;;20.30;61.40;;;;;;4996454;28;20137;-55
2023/04/24 09:28:36;;;;;;;2.55;1.77;;;20.30;61.30;;;;;;4993896;28;20072;-58
2023/04/24 09:31:07;;;;;;;3.58;2.15;;;20.30;61.20;;;;;;4996699;28;20683;-64
2023/04/24 09:33:32;;;;;;;4.13;2.13;;;20.30;61.20;;;;;;4996175;28;20038;-56
2023/04/24 09:35:59;;;;;;;5.13;2.60;;;20.30;61.10;;;;;;4993423;28;20510;-55
2023/04/24 09:38:38;;;;;;;3.00;1.83;;;20.30;61.10;;;;;;4998915;28;20117;-55
2023/04/24 09:41:08;;;;;;;2.70;1.60;;;20.30;61.10;;;;;;4997980;28;20412;-56
2023/04/24 09:43:34;;;;;;;3.63;2.05;;;20.30;61.10;;;;;;4989249;28;20030;-55
2023/04/24 09:46:07;;;;;;;3.47;2.10;;;20.30;61.10;;;;;;5002171;28;20037;-56
2023/04/24 09:48:35;;;;;;;2.53;2.00;;;20.30;61.10;;;;;;4997357;28;20026;-57
2023/04/24 09:51:03;;;;;;;4.38;2.03;;;20.30;61.10;;;;;;5000148;28;20033;-53
2023/04/24 09:53:30;;;;;;;2.70;1.65;;;20.30;61.10;;;;;;4993196;28;20149;-56
2023/04/24 09:56:01;;;;;;;2.60;2.03;;;20.30;61.10;;;;;;4996132;28;20030;-57
2023/04/24 09:58:29;;;;;;;3.03;1.98;;;20.30;61.10;;;;;;4994976;28;20037;-57
2023/04/24 10:00:56;;;;;;;3.92;1.95;;;20.30;61.10;;;;;;4994992;28;20497;-56
2023/04/24 10:03:25;;;;;;;2.85;1.85;;;20.30;61.10;;;;;;4996834;28;20479;-58
2023/04/24 10:05:52;;;;;;;2.85;1.95;;;20.30;61.10;;;;;;4996742;28;20079;-58
2023/04/24 10:08:18;;;;;;;3.20;1.95;;;20.30;61.00;;;;;;4996357;28;20033;-56
2023/04/24 10:10:45;;;;;;;2.20;1.52;;;20.30;61.10;;;;;;4998230;28;20299;-56
2023/04/24 10:13:13;;;;;;;2.63;1.38;;;20.30;61.00;;;;;;4993506;28;20030;-58
2023/04/24 10:15:40;;;;;;;3.00;1.80;;;20.30;61.00;;;;;;5002344;28;20049;-56
2023/04/24 10:18:07;;;;;;;2.45;1.60;;;20.30;61.10;;;;;;5001874;28;20533;-57
2023/04/24 10:20:34;;;;;;;2.58;1.67;;;20.30;61.10;;;;;;4997951;28;20030;-57
2023/04/24 10:23:00;;;;;;;2.72;1.60;;;20.30;61.10;;;;;;4999416;28;20185;-54
2023/04/24 10:25:28;;;;;;;3.75;1.63;;;20.30;61.10;;;;;;4995961;28;20773;-56
2023/04/24 10:27:59;;;;;;;3.95;1.88;;;20.30;61.10;;;;;;4994941;28;20041;-57
2023/04/24 10:30:29;;;;;;;3.58;2.00;;;20.30;61.10;;;;;;4996778;28;20116;-55
2023/04/24 10:33:44;;;;;;;5.20;2.00;;;20.30;61.10;;;;;;4996625;28;20615;-54
2023/04/24 10:36:11;;;;;;;5.25;1.83;;;20.30;61.10;;;;;;4997442;28;20347;-55
2023/04/24 10:38:40;;;;;;;5.05;2.25;;;20.30;61.10;;;;;;4992393;28;20058;-51
2023/04/24 10:41:15;;;;;;;2.97;1.67;;;20.30;61.20;;;;;;4998052;28;20030;-55
2023/04/24 10:43:42;;;;;;;3.63;1.80;;;20.30;61.20;;;;;;4997608;28;20038;-57
2023/04/24 10:46:10;;;;;;;3.97;2.08;;;20.30;61.30;;;;;;5004565;28;20035;-57
2023/04/24 10:48:35;;;;;;;3.05;1.50;;;20.30;61.20;;;;;;5000907;28;20081;-56
2023/04/24 10:51:01;;;;;;;2.28;1.55;;;20.30;61.20;;;;;;4997936;28;20471;-57
2023/04/24 10:53:29;;;;;;;4.68;1.77;;;20.30;61.20;;;;;;4994090;28;20108;-56
2023/04/24 10:56:05;;;;;;;4.40;1.60;;;20.30;61.20;;;;;;4995225;28;20044;-54
2023/04/24 10:59:07;;;;;;;7.22;1.77;;;20.30;61.30;;;;;;4993697;28;20040;-57
2023/04/24 11:01:32;;;;;;;3.17;1.30;;;20.30;61.20;;;;;;4951526;28;20026;-61
2023/04/24 11:04:00;;;;;;;4.18;1.90;;;20.30;61.30;;;;;;4992373;28;20030;-58
2023/04/24 11:06:33;;;;;;;4.65;1.42;;;20.30;61.20;;;;;;4999292;28;20074;-54
2023/04/24 11:09:09;;;;;;;3.28;1.60;;;20.30;61.30;;;;;;4999649;28;20498;-57
2023/04/24 11:11:37;;;;;;;2.33;1.48;;;20.30;61.20;;;;;;5000138;28;20026;-58
2023/04/24 11:14:06;;;;;;;1.52;1.23;;;20.30;61.30;;;;;;5005645;28;20121;-58
2023/04/24 11:16:56;;;;;;;4.72;1.70;;;20.30;61.30;;;;;;5002986;28;20034;-58
2023/04/24 11:19:24;;;;;;;2.63;1.30;;;20.30;61.30;;;;;;4999390;28;20117;-57
2023/04/24 11:22:01;;;;;;;3.25;1.67;;;20.30;61.30;;;;;;4997455;28;20157;-54
2023/04/24 11:24:40;;;;;;;3.30;1.52;;;20.30;61.30;;;;;;4995923;28;20088;-56
2023/04/24 11:27:17;;;;;;;3.55;1.50;;;20.30;61.30;;;;;;5009758;23;20144;-59
2023/04/24 11:29:43;;;;;;;2.38;1.70;;;20.30;61.30;;;;;;5003921;28;20022;-55
2023/04/24 11:32:29;;;;;;;6.90;1.70;;;20.30;61.30;;;;;;5003064;28;20030;-53
2023/04/24 11:34:55;;;;;;;;;;;20.30;61.50;;;;;;4999636;28;20037;-55
2023/04/24 11:37:22;;;;;;;2.25;1.15;;;20.30;61.60;;;;;;4102083;28;10000995;-57
2023/04/24 11:39:51;;;;;;;3.40;1.20;;;20.30;61.60;;;;;;4966919;28;20080;-57
2023/04/24 11:42:18;;;;;;;2.22;1.20;;;20.40;61.80;;;;;;5004856;28;20056;-55
2023/04/24 11:44:43;;;;;;;2.75;1.52;;;20.40;61.80;;;;;;5007624;28;20933;-55
2023/04/24 11:47:09;;;;;;;2.47;1.42;;;20.40;61.70;;;;;;5004378;28;20068;-56
2023/04/24 11:49:38;;;;;;;3.42;1.67;;;20.40;61.60;;;;;;4998469;28;20114;-57
2023/04/24 11:52:04;;;;;;;2.10;1.20;;;20.40;61.50;;;;;;4996691;28;20042;-58
2023/04/24 11:54:30;;;;;;;2.47;1.10;;;20.40;61.50;;;;;;4994320;28;20114;-56
2023/04/24 11:57:52;;;;;;;4.53;1.60;;;20.30;61.40;;;;;;4997562;28;20458;-55
2023/04/24 12:00:23;;;;;;;2.88;1.08;;;20.40;61.40;;;;;;4996829;28;20149;-53
2023/04/24 12:02:49;;;;;;;3.92;1.15;;;20.40;61.50;;;;;;4998804;28;20434;-56
2023/04/24 12:05:31;;;;;;;2.72;1.65;;;20.40;61.50;;;;;;5002006;28;20342;-55
2023/04/24 12:07:56;;;;;;;4.35;1.40;;;20.40;61.50;;;;;;4999389;28;20037;-57
2023/04/24 12:10:24;;;;;;;2.70;0.95;;;20.40;61.60;;;;;;4998626;28;20033;-55
2023/04/24 12:12:51;;;;;;;4.03;1.00;;;20.30;61.70;;;;;;5002498;28;20052;-56
2023/04/24 12:15:18;;;;;;;2.65;1.08;;;20.40;61.80;;;;;;5016305;23;20028;-69
2023/04/24 12:17:44;;;;;;;3.15;1.30;;;20.40;61.80;;;;;;4994272;28;20042;-69
2023/04/24 12:20:11;;;;;;;5.28;1.52;;;20.40;61.90;;;;;;4982818;28;20568;-69
2023/04/24 12:22:46;;;;;;;2.38;1.20;;;20.40;61.90;;;;;;4997550;28;20026;-68
2023/04/24 12:25:12;;;;;;;3.42;1.15;;;20.40;62.00;;;;;;4977478;28;20038;-68
2023/04/24 12:30:15;;;;;;;;;;;20.40;61.90;;;;;;5057681;23;20103;-51
2023/04/24 12:32:49;;;;;;;3.75;1.40;;;20.40;62.00;;;;;;5007716;28;19970;-52
2023/04/24 12:35:23;;;;;;;4.75;1.20;;;20.40;62.00;;;;;;4999087;28;20076;-52
2023/04/24 12:37:49;;;;;;;3.42;1.00;;;20.40;62.00;;;;;;5289499;23;20120;-64
2023/04/24 12:40:15;;;;;;;5.32;1.67;;;20.40;61.90;;;;;;5000740;28;20522;-64
2023/04/24 12:42:45;;;;;;;5.15;1.27;;;20.40;62.00;;;;;;5002968;28;20048;-62
2023/04/24 12:45:14;;;;;;;1.77;1.30;;;20.40;62.10;;;;;;5006169;28;20030;-63
2023/04/24 12:47:41;;;;;;;3.75;1.17;;;20.40;62.00;;;;;;5033727;23;20042;-53
2023/04/24 12:50:15;;;;;;;5.47;1.63;;;20.40;62.30;;;;;;4994721;28;20034;-52
2023/04/24 12:52:42;;;;;;;3.88;1.33;;;20.50;62.40;;;;;;4997334;28;20034;-53
2023/04/24 12:55:08;;;;;;;5.45;1.20;;;20.50;62.40;;;;;;4996136;28;20054;-51
2023/04/24 12:57:35;;;;;;;1.90;0.90;;;20.60;62.30;;;;;;4999012;28;20134;-55